createdAt,value
2017-12-11T00:02:14.471Z,79.15
2017-12-11T00:04:41.989Z,79.55
2017-12-11T00:07:09.480Z,80.53
2017-12-11T00:09:37.006Z,80.04
2017-12-11T00:12:04.489Z,80.55
2017-12-11T00:14:32.004Z,81.18
2017-12-11T00:16:59.497Z,81.02
2017-12-11T00:19:27.019Z,81.18
2017-12-11T00:21:54.510Z,83.51
2017-12-11T00:24:22.000Z,83.71
2017-12-11T00:26:49.530Z,84.22
2017-12-11T00:29:17.022Z,84.94
2017-12-11T00:31:44.645Z,85.12
2017-12-11T00:34:12.141Z,86.45
2017-12-11T00:36:39.636Z,87.04
2017-12-11T00:39:07.136Z,87.11
2017-12-11T00:41:34.716Z,88.40
2017-12-11T00:44:02.227Z,87.59
2017-12-11T00:46:29.726Z,87.07
2017-12-11T00:48:57.231Z,86.42
2017-12-11T00:51:24.731Z,85.21
2017-12-11T00:53:52.255Z,85.50
2017-12-11T00:56:19.772Z,85.14
2017-12-11T00:58:47.299Z,84.71
2017-12-11T01:01:15.717Z,84.87
2017-12-11T01:03:43.223Z,84.75
2017-12-11T01:06:10.753Z,85.47
2017-12-11T01:08:38.257Z,85.45
2017-12-11T01:11:05.756Z,86.18
2017-12-11T01:13:33.276Z,85.50
2017-12-11T01:16:00.781Z,85.18
2017-12-11T01:18:28.273Z,85.46
2017-12-11T01:20:55.776Z,84.45
2017-12-11T01:23:23.300Z,84.05
2017-12-11T01:25:50.903Z,87.71
2017-12-11T01:28:18.443Z,89.38
2017-12-11T01:30:45.989Z,89.32
2017-12-11T01:33:13.509Z,91.29
2017-12-11T01:35:41.035Z,91.40
2017-12-11T01:38:08.662Z,92.02
2017-12-11T01:40:36.172Z,91.19
2017-12-11T01:43:03.941Z,92.30
2017-12-11T01:45:31.440Z,92.90
2017-12-11T01:47:58.949Z,93.50
2017-12-11T01:50:26.441Z,94.06
2017-12-11T01:52:53.921Z,93.65
2017-12-11T01:55:21.446Z,92.32
2017-12-11T01:57:48.949Z,92.85
2017-12-11T02:00:16.446Z,92.56
2017-12-11T02:02:43.944Z,94.42
2017-12-11T02:05:11.433Z,93.37
2017-12-11T02:07:38.958Z,94.51
2017-12-11T02:10:06.471Z,94.94
2017-12-11T02:12:33.980Z,94.13
2017-12-11T02:15:01.478Z,93.91
2017-12-11T02:17:28.979Z,94.34
2017-12-11T02:19:56.501Z,93.70
2017-12-11T02:22:24.016Z,93.33
2017-12-11T02:24:51.524Z,93.21
2017-12-11T02:27:19.021Z,92.81
2017-12-11T02:29:46.516Z,93.01
2017-12-11T02:32:14.004Z,91.47
2017-12-11T02:34:41.486Z,91.69
2017-12-11T02:37:08.980Z,93.17
2017-12-11T02:39:36.473Z,92.88
2017-12-11T02:42:03.966Z,93.70
2017-12-11T02:44:31.466Z,93.23
2017-12-11T02:46:59.036Z,92.30
2017-12-11T02:49:26.510Z,91.33
2017-12-11T02:51:54.002Z,89.83
2017-12-11T02:54:21.514Z,89.25
2017-12-11T02:56:48.996Z,90.18
2017-12-11T02:59:16.485Z,89.85
2017-12-11T03:01:43.977Z,91.90
2017-12-11T03:04:11.484Z,91.20
2017-12-11T03:06:38.983Z,90.90
2017-12-11T03:09:06.478Z,90.89
2017-12-11T03:11:33.972Z,91.96
2017-12-11T03:14:01.456Z,94.10
2017-12-11T03:16:28.963Z,94.57
2017-12-11T03:18:56.461Z,93.36
2017-12-11T03:21:23.972Z,93.96
2017-12-11T03:23:51.461Z,93.08
2017-12-11T03:26:18.958Z,92.32
2017-12-11T03:28:46.444Z,91.80
2017-12-11T03:31:13.954Z,90.57
2017-12-11T03:33:41.439Z,93.00
2017-12-11T03:36:08.925Z,92.93
2017-12-11T03:38:36.433Z,95.17
2017-12-11T03:41:03.917Z,94.72
2017-12-11T03:43:31.421Z,95.42
2017-12-11T03:45:58.909Z,94.67
2017-12-11T03:48:26.404Z,94.09
2017-12-11T03:50:53.900Z,94.69
2017-12-11T03:53:21.389Z,93.25
2017-12-11T03:55:48.884Z,93.40
2017-12-11T03:58:16.406Z,94.73
2017-12-11T04:00:43.922Z,95.64
2017-12-11T04:03:11.404Z,95.33
2017-12-11T04:05:38.890Z,94.79
2017-12-11T04:08:06.381Z,96.71
2017-12-11T04:10:33.885Z,96.40
2017-12-11T04:13:01.369Z,95.49
2017-12-11T04:15:28.880Z,94.79
2017-12-11T04:17:56.355Z,93.89
2017-12-11T04:20:23.833Z,92.54
2017-12-11T04:22:51.318Z,93.56
2017-12-11T04:25:18.791Z,93.46
2017-12-11T04:27:46.287Z,94.92
2017-12-11T04:30:13.794Z,96.26
2017-12-11T04:32:41.286Z,95.56
2017-12-11T04:35:08.772Z,94.68
2017-12-11T04:37:36.252Z,94.38
2017-12-11T04:40:03.758Z,94.41
2017-12-11T04:42:31.244Z,93.78
2017-12-11T04:44:58.730Z,93.17
2017-12-11T04:47:26.214Z,94.39
2017-12-11T04:49:53.697Z,95.11
2017-12-11T04:52:21.176Z,97.07
2017-12-11T04:54:48.667Z,98.29
2017-12-11T04:57:16.186Z,98.52
2017-12-11T04:59:43.689Z,98.85
2017-12-11T05:02:11.206Z,97.96
2017-12-11T05:04:38.683Z,96.69
2017-12-11T05:07:06.188Z,96.06
2017-12-11T05:09:33.689Z,95.58
2017-12-11T05:12:01.175Z,96.37
2017-12-11T05:14:28.697Z,96.72
2017-12-11T05:16:56.189Z,96.85
2017-12-11T05:19:23.669Z,96.41
2017-12-11T05:21:51.185Z,96.71
2017-12-11T05:24:18.726Z,96.32
2017-12-11T05:26:46.219Z,96.77
2017-12-11T05:29:13.727Z,95.79
2017-12-11T05:31:41.221Z,95.48
2017-12-11T05:34:08.710Z,94.62
2017-12-11T05:36:36.206Z,95.56
2017-12-11T05:39:03.710Z,94.86
2017-12-11T05:41:31.215Z,94.82
2017-12-11T05:43:58.709Z,96.16
2017-12-11T05:46:26.217Z,97.04
2017-12-11T05:48:53.712Z,97.13
2017-12-11T05:51:21.205Z,97.09
2017-12-11T05:53:48.690Z,98.07
2017-12-11T05:56:16.200Z,97.65
2017-12-11T05:58:43.689Z,98.23
2017-12-11T06:01:11.169Z,98.59
2017-12-11T06:03:38.840Z,96.54
2017-12-11T06:06:06.472Z,97.27
2017-12-11T06:08:34.077Z,97.19
2017-12-11T06:11:01.567Z,96.43
2017-12-11T06:13:29.055Z,95.56
2017-12-11T06:15:56.537Z,98.32
2017-12-11T06:18:24.044Z,98.62
2017-12-11T06:20:51.546Z,97.56
2017-12-11T06:23:19.044Z,97.66
2017-12-11T06:25:46.518Z,97.48
2017-12-11T06:28:14.028Z,97.64
2017-12-11T06:30:41.518Z,98.35
2017-12-11T06:33:09.002Z,98.45
2017-12-11T06:35:36.514Z,97.85
2017-12-11T06:38:04.007Z,96.79
2017-12-11T06:40:31.504Z,96.10
2017-12-11T06:42:59.003Z,95.73
2017-12-11T06:45:26.498Z,96.70
2017-12-11T06:47:53.977Z,98.68
2017-12-11T06:50:21.517Z,98.44
2017-12-11T06:52:49.018Z,97.90
2017-12-11T06:55:16.517Z,97.59
2017-12-11T06:57:44.014Z,98.97
2017-12-11T07:00:11.526Z,99.57
2017-12-11T07:02:39.027Z,99.55
2017-12-11T07:05:06.533Z,99.16
2017-12-11T07:07:34.034Z,97.72
2017-12-11T07:10:01.547Z,96.80
2017-12-11T07:12:29.061Z,96.56
2017-12-11T07:14:56.574Z,98.49
2017-12-11T07:17:24.079Z,97.44
2017-12-11T07:19:51.594Z,96.30
2017-12-11T07:22:19.117Z,96.28
2017-12-11T07:24:46.654Z,96.86
2017-12-11T07:27:14.189Z,96.46
2017-12-11T07:29:41.711Z,95.72
2017-12-11T07:32:09.193Z,96.08
2017-12-11T07:34:36.684Z,97.56
2017-12-11T07:37:04.193Z,96.94
2017-12-11T07:39:31.726Z,96.64
2017-12-11T07:41:59.221Z,97.13
2017-12-11T07:44:26.712Z,97.94
2017-12-11T07:46:54.196Z,97.65
2017-12-11T07:49:21.709Z,98.24
2017-12-11T07:51:49.192Z,99.03
2017-12-11T07:54:16.812Z,99.89
2017-12-11T07:56:44.472Z,100.00
2017-12-11T07:59:11.945Z,100.00
2017-12-11T08:01:39.441Z,100.00
2017-12-11T08:04:06.993Z,100.00
2017-12-11T08:06:35.427Z,100.00
2017-12-11T08:09:02.985Z,100.00
2017-12-11T08:11:30.475Z,100.00
2017-12-11T08:13:57.973Z,100.00
2017-12-11T08:16:25.516Z,99.84
2017-12-11T08:18:53.037Z,99.59
2017-12-11T08:21:20.524Z,99.46
2017-12-11T08:23:48.033Z,99.10
2017-12-11T08:26:15.534Z,99.42
2017-12-11T08:28:43.023Z,99.34
2017-12-11T08:31:10.592Z,99.26
2017-12-11T08:33:38.102Z,99.51
2017-12-11T08:36:05.638Z,99.05
2017-12-11T08:38:33.169Z,98.01
2017-12-11T08:41:00.691Z,98.07
2017-12-11T08:43:28.198Z,98.58
2017-12-11T08:45:55.712Z,99.39
2017-12-11T08:48:23.213Z,99.21
2017-12-11T08:50:50.705Z,98.74
2017-12-11T08:53:18.189Z,98.51
2017-12-11T08:55:45.684Z,98.11
2017-12-11T08:58:13.189Z,97.87
2017-12-11T09:00:40.844Z,96.54
2017-12-11T09:03:08.362Z,96.95
2017-12-11T09:05:35.882Z,96.11
2017-12-11T09:08:03.390Z,95.32
2017-12-11T09:10:31.009Z,96.57
2017-12-11T09:12:58.518Z,97.06
2017-12-11T09:15:26.023Z,96.82
2017-12-11T09:17:53.543Z,96.35
2017-12-11T09:20:21.036Z,98.03
2017-12-11T09:22:48.540Z,97.10
2017-12-11T09:25:16.060Z,95.27
2017-12-11T09:27:43.572Z,96.20
2017-12-11T09:30:11.065Z,97.80
2017-12-11T09:32:38.564Z,97.47
2017-12-11T09:35:06.048Z,96.64
2017-12-11T09:37:33.583Z,95.06
2017-12-11T09:40:01.093Z,94.75
2017-12-11T09:42:28.585Z,94.98
2017-12-11T09:44:56.092Z,93.96
2017-12-11T09:47:23.621Z,94.21
2017-12-11T09:49:51.117Z,95.44
2017-12-11T09:52:18.606Z,98.07
2017-12-11T09:54:46.156Z,97.05
2017-12-11T09:57:13.640Z,96.34
2017-12-11T09:59:41.126Z,96.83
2017-12-11T10:02:08.728Z,95.63
2017-12-11T10:04:36.213Z,94.62
2017-12-11T10:07:03.717Z,93.61
2017-12-11T10:09:31.217Z,93.96
2017-12-11T10:11:58.729Z,92.96
2017-12-11T10:14:26.213Z,92.94
2017-12-11T10:16:54.646Z,93.36
2017-12-11T10:19:22.160Z,91.87
2017-12-11T10:21:49.670Z,94.03
2017-12-11T10:24:17.187Z,94.75
2017-12-11T10:26:44.827Z,93.86
2017-12-11T10:29:12.321Z,95.26
2017-12-11T10:31:39.841Z,96.28
2017-12-11T10:34:07.344Z,97.03
2017-12-11T10:36:35.712Z,97.58
2017-12-11T10:39:03.221Z,96.09
2017-12-11T10:41:30.725Z,95.34
2017-12-11T10:43:58.217Z,95.96
2017-12-11T10:46:25.710Z,95.73
2017-12-11T10:48:53.201Z,95.99
2017-12-11T10:51:20.709Z,96.40
2017-12-11T10:53:49.444Z,94.69
2017-12-11T10:56:16.963Z,95.77
2017-12-11T10:58:44.472Z,97.79
2017-12-11T11:01:11.965Z,98.29
2017-12-11T11:03:39.555Z,98.06
2017-12-11T11:06:07.049Z,97.16
2017-12-11T11:08:34.542Z,95.92
2017-12-11T11:11:02.040Z,96.90
2017-12-11T11:13:29.537Z,98.42
2017-12-11T11:15:57.051Z,98.18
2017-12-11T11:18:24.541Z,99.07
2017-12-11T11:20:52.053Z,98.39
2017-12-11T11:23:19.548Z,97.72
2017-12-11T11:25:47.054Z,95.83
2017-12-11T11:28:14.548Z,93.48
2017-12-11T11:30:42.052Z,97.07
2017-12-11T11:33:09.540Z,97.03
2017-12-11T11:35:37.053Z,96.07
2017-12-11T11:38:04.556Z,98.39
2017-12-11T11:40:32.044Z,98.44
2017-12-11T11:42:59.577Z,98.77
2017-12-11T11:45:27.085Z,97.52
2017-12-11T11:47:54.592Z,96.27
2017-12-11T11:50:22.210Z,95.97
2017-12-11T11:52:49.721Z,94.42
2017-12-11T11:55:17.204Z,93.08
2017-12-11T11:57:44.678Z,93.28
2017-12-11T12:00:12.198Z,92.47
2017-12-11T12:02:39.705Z,92.36
2017-12-11T12:05:07.212Z,93.32
2017-12-11T12:07:34.753Z,93.04
2017-12-11T12:10:02.268Z,92.66
2017-12-11T12:12:29.761Z,92.44
2017-12-11T12:14:57.272Z,93.32
2017-12-11T12:17:24.783Z,92.10
2017-12-11T12:19:52.261Z,95.88
2017-12-11T12:22:19.915Z,95.12
2017-12-11T12:24:47.444Z,95.34
2017-12-11T12:27:14.995Z,95.24
2017-12-11T12:29:42.673Z,96.68
2017-12-11T12:32:10.353Z,96.06
2017-12-11T12:34:37.839Z,96.32
2017-12-11T12:37:05.344Z,97.31
2017-12-11T12:39:32.840Z,97.84
2017-12-11T12:42:00.352Z,97.90
2017-12-11T12:44:27.849Z,97.48
2017-12-11T12:46:55.339Z,96.97
2017-12-11T12:49:22.895Z,95.77
2017-12-11T12:51:50.396Z,93.75
2017-12-11T12:54:17.888Z,92.97
2017-12-11T12:56:45.411Z,93.89
2017-12-11T12:59:12.897Z,94.20
2017-12-11T13:01:40.415Z,93.17
2017-12-11T13:04:08.874Z,92.85
2017-12-11T13:06:36.389Z,92.25
2017-12-11T13:09:03.909Z,90.69
2017-12-11T13:11:31.442Z,92.47
2017-12-11T13:13:58.944Z,93.22
2017-12-11T13:16:26.434Z,92.92
2017-12-11T13:18:53.920Z,90.92
2017-12-11T13:21:21.416Z,90.42
2017-12-11T13:23:48.934Z,90.41
2017-12-11T13:26:16.451Z,89.31
2017-12-11T13:28:43.961Z,92.00
2017-12-11T13:31:11.485Z,90.38
2017-12-11T13:33:39.114Z,90.61
2017-12-11T13:36:06.643Z,90.61
2017-12-11T13:38:34.151Z,91.71
2017-12-11T13:41:01.670Z,90.72
2017-12-11T13:43:29.174Z,94.77
2017-12-11T13:45:56.681Z,94.72
2017-12-11T13:48:24.172Z,93.03
2017-12-11T13:50:51.670Z,92.57
2017-12-11T13:53:19.157Z,92.16
2017-12-11T13:55:46.821Z,91.41
2017-12-11T13:58:21.221Z,91.17
2017-12-11T14:00:59.410Z,91.05
2017-12-11T14:03:26.923Z,92.28
2017-12-11T14:05:54.412Z,91.24
2017-12-11T14:08:21.969Z,91.47
2017-12-11T14:10:49.602Z,92.46
2017-12-11T14:13:17.130Z,93.34
2017-12-11T14:15:44.739Z,92.47
2017-12-11T14:18:12.305Z,92.19
2017-12-11T14:20:39.798Z,96.06
2017-12-11T14:23:07.284Z,96.37
2017-12-11T14:25:34.802Z,94.63
2017-12-11T14:28:02.317Z,95.52
2017-12-11T14:30:29.821Z,96.33
2017-12-11T14:32:57.304Z,97.66
2017-12-11T14:35:24.787Z,97.94
2017-12-11T14:37:52.313Z,98.96
2017-12-11T14:40:19.802Z,98.71
2017-12-11T14:42:47.428Z,98.02
2017-12-11T14:45:14.950Z,97.89
2017-12-11T14:47:42.441Z,96.89
2017-12-11T14:50:09.955Z,96.23
2017-12-11T14:52:37.462Z,95.66
2017-12-11T14:55:04.956Z,95.52
2017-12-11T14:57:32.440Z,96.76
2017-12-11T14:59:59.962Z,97.55
2017-12-11T15:02:27.480Z,96.85
2017-12-11T15:04:55.026Z,98.32
2017-12-11T15:07:22.537Z,97.45
2017-12-11T15:09:50.027Z,97.78
2017-12-11T15:12:17.528Z,97.66
2017-12-11T15:14:45.041Z,97.61
2017-12-11T15:17:12.553Z,97.38
2017-12-11T15:19:40.123Z,96.59
2017-12-11T15:22:07.585Z,96.32
2017-12-11T15:24:35.090Z,95.98
2017-12-11T15:27:02.608Z,96.46
2017-12-11T15:29:30.098Z,96.60
2017-12-11T15:31:57.607Z,96.75
2017-12-11T15:34:25.122Z,96.51
2017-12-11T15:36:52.669Z,96.07
2017-12-11T15:39:20.182Z,96.24
2017-12-11T15:41:47.718Z,95.54
2017-12-11T15:44:15.253Z,95.39
2017-12-11T15:46:42.811Z,95.20
2017-12-11T15:49:10.286Z,95.73
2017-12-11T15:51:37.795Z,97.75
2017-12-11T15:54:05.285Z,99.01
2017-12-11T15:56:32.811Z,99.18
2017-12-11T15:59:00.346Z,98.82
2017-12-11T16:01:27.882Z,98.92
2017-12-11T16:03:55.384Z,97.97
2017-12-11T16:06:22.891Z,97.31
2017-12-11T16:08:50.392Z,98.43
2017-12-11T16:11:17.881Z,98.31
2017-12-11T16:13:45.398Z,98.09
2017-12-11T16:16:12.878Z,98.04
2017-12-11T16:18:40.396Z,97.90
2017-12-11T16:21:07.923Z,97.90
2017-12-11T16:23:35.440Z,98.31
2017-12-11T16:26:02.960Z,97.58
2017-12-11T16:28:30.478Z,97.39
2017-12-11T16:30:58.047Z,97.89
2017-12-11T16:33:26.120Z,96.76
2017-12-11T16:35:53.618Z,96.72
2017-12-11T16:38:21.160Z,96.50
2017-12-11T16:40:48.673Z,97.09
2017-12-11T16:43:16.188Z,97.82
2017-12-11T16:45:43.939Z,97.70
2017-12-11T16:48:11.438Z,97.89
2017-12-11T16:50:38.955Z,98.12
2017-12-11T16:53:06.456Z,98.71
2017-12-11T16:55:33.984Z,98.37
2017-12-11T16:58:01.524Z,98.37
2017-12-11T17:00:29.019Z,98.31
2017-12-11T17:02:56.530Z,98.76
2017-12-11T17:05:24.078Z,98.63
2017-12-11T17:07:51.595Z,98.60
2017-12-11T17:10:19.096Z,98.60
2017-12-11T17:12:48.296Z,98.35
2017-12-11T17:15:15.906Z,97.07
2017-12-11T17:17:43.519Z,97.72
2017-12-11T17:20:11.049Z,97.10
2017-12-11T17:22:38.538Z,96.81
2017-12-11T17:25:06.057Z,96.01
2017-12-11T17:27:33.553Z,95.43
2017-12-11T17:30:01.215Z,95.77
2017-12-11T17:32:28.739Z,95.64
2017-12-11T17:34:56.241Z,95.19
2017-12-11T17:37:23.729Z,94.75
2017-12-11T17:39:51.350Z,94.18
2017-12-11T17:42:18.857Z,93.07
2017-12-11T17:44:46.376Z,92.76
2017-12-11T17:47:13.905Z,91.64
2017-12-11T17:49:41.568Z,92.36
2017-12-11T17:52:09.246Z,92.93
2017-12-11T17:54:36.780Z,92.06
2017-12-11T17:57:04.308Z,92.00
2017-12-11T17:59:31.853Z,91.32
2017-12-11T18:01:59.371Z,90.39
2017-12-11T18:04:26.888Z,91.24
2017-12-11T18:06:54.458Z,90.01
2017-12-11T18:09:21.945Z,91.06
2017-12-11T18:11:49.432Z,90.88
2017-12-11T18:14:16.914Z,89.25
2017-12-11T18:16:44.396Z,89.33
2017-12-11T18:19:11.936Z,89.99
2017-12-11T18:21:39.450Z,89.21
2017-12-11T18:24:06.945Z,88.61
2017-12-11T18:26:34.466Z,89.13
2017-12-11T18:29:02.025Z,89.27
2017-12-11T18:31:29.543Z,89.13
2017-12-11T18:33:57.035Z,88.88
2017-12-11T18:36:24.535Z,89.46
2017-12-11T18:38:52.061Z,88.14
2017-12-11T18:41:19.614Z,88.26
2017-12-11T18:43:47.293Z,86.41
2017-12-11T18:46:15.775Z,87.02
2017-12-11T18:48:43.266Z,86.68
2017-12-11T18:51:10.875Z,86.83
2017-12-11T18:53:38.391Z,87.93
2017-12-11T18:56:05.917Z,86.50
2017-12-11T18:58:33.432Z,87.05
2017-12-11T19:01:01.222Z,86.77
2017-12-11T19:03:34.545Z,87.35
2017-12-11T19:06:02.127Z,86.94
2017-12-11T19:08:29.635Z,86.33
2017-12-11T19:10:57.119Z,84.24
2017-12-11T19:13:24.621Z,85.22
2017-12-11T19:15:52.136Z,85.17
2017-12-11T19:18:19.633Z,85.10
2017-12-11T19:20:47.158Z,83.63
2017-12-11T19:23:14.698Z,83.72
2017-12-11T19:25:42.197Z,82.52
2017-12-11T19:28:09.713Z,83.75
2017-12-11T19:30:37.244Z,82.28
2017-12-11T19:33:04.757Z,81.18
2017-12-11T19:35:32.303Z,80.22
2017-12-11T19:37:59.813Z,80.15
2017-12-11T19:40:27.308Z,81.78
2017-12-11T19:42:54.788Z,80.47
2017-12-11T19:45:22.321Z,81.31
2017-12-11T19:47:49.821Z,81.61
2017-12-11T19:50:17.309Z,80.90
2017-12-11T19:52:44.820Z,80.24
2017-12-11T19:55:12.334Z,80.44
2017-12-11T19:57:39.852Z,81.87
2017-12-11T20:00:07.379Z,81.15
2017-12-11T20:02:34.868Z,81.34
2017-12-11T20:05:02.535Z,81.03
2017-12-11T20:07:30.078Z,79.07
2017-12-11T20:09:57.554Z,79.42
2017-12-11T20:12:25.058Z,80.17
2017-12-11T20:14:52.545Z,79.02
2017-12-11T20:17:20.082Z,79.35
2017-12-11T20:19:47.578Z,77.91
2017-12-11T20:22:15.085Z,78.21
2017-12-11T20:24:42.570Z,78.24
2017-12-11T20:27:10.104Z,78.68
2017-12-11T20:29:37.624Z,77.18
2017-12-11T20:32:05.126Z,78.36
2017-12-11T20:34:32.625Z,79.01
2017-12-11T20:37:00.132Z,78.57
2017-12-11T20:39:27.639Z,77.96
2017-12-11T20:41:55.153Z,78.45
2017-12-11T20:44:22.689Z,79.72
2017-12-11T20:46:50.221Z,79.60
2017-12-11T20:49:17.805Z,80.05
2017-12-11T20:51:45.349Z,78.53
2017-12-11T20:54:13.351Z,77.43
2017-12-11T20:56:41.314Z,78.25
2017-12-11T20:59:09.182Z,77.37
2017-12-11T21:01:37.132Z,77.88
2017-12-11T21:04:05.179Z,75.77
2017-12-11T21:06:33.394Z,76.43
2017-12-11T21:09:01.476Z,77.67
2017-12-11T21:11:30.241Z,77.53
2017-12-11T21:13:58.447Z,77.85
2017-12-11T21:16:27.459Z,79.73
2017-12-11T21:18:55.707Z,78.60
2017-12-11T21:21:23.781Z,77.37
2017-12-11T21:23:51.858Z,77.95
2017-12-11T21:26:20.581Z,78.40
2017-12-11T21:28:48.607Z,78.02
2017-12-11T21:31:16.468Z,77.18
2017-12-11T21:33:44.637Z,78.45
2017-12-11T21:36:12.622Z,78.58
2017-12-11T21:38:40.698Z,78.49
2017-12-11T21:41:08.773Z,79.04
2017-12-11T21:43:37.185Z,77.59
2017-12-11T21:46:05.097Z,77.76
2017-12-11T21:48:33.167Z,77.39
2017-12-11T21:51:01.138Z,77.60
2017-12-11T21:53:28.693Z,75.37
2017-12-11T21:55:56.466Z,75.78
2017-12-11T21:58:24.265Z,73.80
2017-12-11T22:00:51.898Z,75.09
2017-12-11T22:03:19.576Z,74.09
2017-12-11T22:05:47.758Z,74.49
2017-12-11T22:08:15.284Z,71.49
2017-12-11T22:10:43.455Z,73.10
2017-12-11T22:13:10.963Z,71.88
2017-12-11T22:15:38.891Z,73.49
2017-12-11T22:18:06.445Z,73.48
2017-12-11T22:20:33.952Z,73.48
2017-12-11T22:23:01.469Z,74.14
2017-12-11T22:25:29.016Z,73.20
2017-12-11T22:27:56.548Z,73.33
2017-12-11T22:30:24.054Z,72.41
2017-12-11T22:32:51.709Z,72.02
2017-12-11T22:35:19.592Z,71.17
2017-12-11T22:37:49.571Z,71.60
2017-12-11T22:40:19.305Z,71.54
2017-12-11T22:42:46.953Z,71.30
2017-12-11T22:45:14.572Z,71.08
2017-12-11T22:47:42.221Z,70.86
2017-12-11T22:50:09.705Z,70.59
2017-12-11T22:52:37.225Z,71.59
2017-12-11T22:55:04.717Z,70.93
2017-12-11T22:57:32.241Z,72.53
2017-12-11T23:00:01.014Z,71.51
2017-12-11T23:02:29.084Z,72.92
2017-12-11T23:04:56.567Z,73.09
2017-12-11T23:07:24.102Z,73.41
2017-12-11T23:09:51.572Z,73.39
2017-12-11T23:12:19.525Z,74.28
2017-12-11T23:14:47.034Z,73.08
2017-12-11T23:17:14.792Z,71.94
2017-12-11T23:19:42.279Z,71.74
2017-12-11T23:22:09.796Z,72.12
2017-12-11T23:24:37.309Z,71.34
2017-12-11T23:27:04.800Z,72.59
2017-12-11T23:29:32.307Z,71.30
2017-12-11T23:31:59.812Z,71.01
2017-12-11T23:34:27.325Z,70.92
2017-12-11T23:36:54.853Z,70.92
2017-12-11T23:39:22.379Z,72.90
2017-12-11T23:41:49.893Z,71.45
2017-12-11T23:44:17.407Z,72.27
2017-12-11T23:46:44.942Z,71.27
2017-12-11T23:49:12.436Z,71.90
2017-12-11T23:51:39.935Z,72.05
2017-12-11T23:54:19.188Z,72.66
2017-12-11T23:56:46.678Z,72.34
2017-12-11T23:59:14.170Z,71.72
